createdAt,value
2019-02-11T00:02:09.912Z,4.70
2019-02-11T00:04:42.807Z,4.80
2019-02-11T00:07:26.376Z,4.80
2019-02-11T00:10:02.353Z,4.80
2019-02-11T00:12:40.252Z,4.90
2019-02-11T00:15:13.560Z,4.90
2019-02-11T00:17:49.214Z,4.80
2019-02-11T00:20:26.737Z,4.90
2019-02-11T00:23:03.769Z,4.90
2019-02-11T00:28:38.231Z,5.00
2019-02-11T00:31:18.667Z,5.10
2019-02-11T00:33:52.879Z,5.10
2019-02-11T00:36:35.463Z,5.10
2019-02-11T00:39:11.429Z,5.10
2019-02-11T00:47:36.028Z,5.20
2019-02-11T00:56:07.385Z,5.20
2019-02-11T00:58:58.905Z,5.30
2019-02-11T01:02:11.416Z,5.30
2019-02-11T01:04:28.446Z,5.30
2019-02-11T01:07:07.686Z,5.30
2019-02-11T01:09:50.718Z,5.30
2019-02-11T01:12:22.790Z,5.30
2019-02-11T01:15:16.310Z,5.30
2019-02-11T01:20:36.789Z,5.30
2019-02-11T01:23:15.252Z,5.40
2019-02-11T01:25:56.909Z,5.40
2019-02-11T01:31:36.653Z,5.50
2019-02-11T01:37:10.876Z,5.50
2019-02-11T01:39:49.759Z,5.50
2019-02-11T01:42:21.573Z,5.50
2019-02-11T01:45:00.373Z,5.50
2019-02-11T01:47:36.612Z,5.50
2019-02-11T01:50:09.392Z,5.50
2019-02-11T01:52:45.468Z,5.40
2019-02-11T01:55:34.496Z,5.40
2019-02-11T01:58:08.568Z,5.30
2019-02-11T02:00:45.649Z,5.30
2019-02-11T02:03:32.946Z,5.20
2019-02-11T02:06:14.487Z,5.20
2019-02-11T02:08:55.252Z,5.20
2019-02-11T02:11:35.149Z,5.10
2019-02-11T02:17:07.065Z,5.00
2019-02-11T02:19:41.405Z,4.90
2019-02-11T02:22:15.824Z,4.90
2019-02-11T02:24:49.129Z,4.90
2019-02-11T02:27:30.110Z,4.80
2019-02-11T02:30:17.217Z,4.80
2019-02-11T02:32:45.135Z,4.70
2019-02-11T02:35:22.288Z,4.80
2019-02-11T02:38:03.504Z,4.70
2019-02-11T02:40:53.241Z,4.70
2019-02-11T02:43:27.659Z,4.60
2019-02-11T02:46:00.838Z,4.60
2019-02-11T02:48:33.374Z,4.50
2019-02-11T02:51:09.165Z,4.50
2019-02-11T02:53:42.296Z,4.50
2019-02-11T02:56:16.349Z,4.50
2019-02-11T02:58:45.082Z,4.50
2019-02-11T03:01:17.143Z,4.50
2019-02-11T03:03:49.409Z,4.50
2019-02-11T03:06:22.423Z,4.50
2019-02-11T03:08:51.778Z,4.50
2019-02-11T03:11:25.405Z,4.40
2019-02-11T03:14:04.938Z,4.40
2019-02-11T03:16:29.037Z,4.40
2019-02-11T03:18:59.501Z,4.40
2019-02-11T03:21:32.954Z,4.40
2019-02-11T03:24:08.241Z,4.40
2019-02-11T03:26:38.946Z,4.40
2019-02-11T03:29:12.712Z,4.40
2019-02-11T03:31:44.606Z,4.50
2019-02-11T03:34:17.637Z,4.40
2019-02-11T03:36:52.327Z,4.40
2019-02-11T03:39:28.527Z,4.40
2019-02-11T03:42:02.075Z,4.40
2019-02-11T03:44:31.325Z,4.50
2019-02-11T03:47:07.642Z,4.50
2019-02-11T03:49:48.315Z,4.50
2019-02-11T03:52:23.554Z,4.60
2019-02-11T03:55:05.726Z,4.60
2019-02-11T03:57:35.045Z,4.60
2019-02-11T04:00:06.087Z,4.60
2019-02-11T04:02:39.526Z,4.60
2019-02-11T04:05:14.861Z,4.60
2019-02-11T04:07:50.626Z,4.70
2019-02-11T04:10:27.512Z,4.70
2019-02-11T04:13:00.736Z,4.70
2019-02-11T04:16:03.444Z,4.70
2019-02-11T04:18:11.173Z,4.70
2019-02-11T04:20:41.609Z,4.70
2019-02-11T04:23:20.034Z,4.70
2019-02-11T04:26:04.982Z,4.80
2019-02-11T04:28:38.569Z,4.80
2019-02-11T04:31:09.900Z,4.80
2019-02-11T04:33:45.711Z,4.80
2019-02-11T04:36:18.866Z,4.80
2019-02-11T04:38:59.028Z,4.90
2019-02-11T04:41:47.420Z,4.90
2019-02-11T04:44:22.751Z,4.90
2019-02-11T04:47:01.733Z,4.90
2019-02-11T04:49:38.729Z,4.90
2019-02-11T04:52:11.766Z,4.90
2019-02-11T04:54:45.118Z,4.90
2019-02-11T04:57:21.470Z,4.90
2019-02-11T04:59:53.184Z,4.90
2019-02-11T05:02:27.422Z,4.90
2019-02-11T05:05:02.632Z,4.90
2019-02-11T05:07:38.356Z,4.90
2019-02-11T05:10:18.376Z,4.90
2019-02-11T05:12:49.967Z,5.00
2019-02-11T05:15:24.266Z,5.00
2019-02-11T05:20:49.562Z,5.00
2019-02-11T05:23:28.005Z,5.00
2019-02-11T05:26:06.580Z,5.00
2019-02-11T05:28:54.772Z,5.10
2019-02-11T05:31:34.103Z,5.10
2019-02-11T05:34:10.887Z,5.10
2019-02-11T05:36:47.169Z,5.10
2019-02-11T05:39:38.080Z,5.10
2019-02-11T05:42:11.247Z,5.10
2019-02-11T05:50:35.531Z,5.20
2019-02-11T06:01:57.438Z,5.30
2019-02-11T06:04:34.012Z,5.30
2019-02-11T06:07:25.535Z,5.30
2019-02-11T06:09:56.707Z,5.30
2019-02-11T06:12:39.500Z,5.40
2019-02-11T06:15:10.268Z,5.40
2019-02-11T06:17:47.103Z,5.40
2019-02-11T06:20:27.395Z,5.40
2019-02-11T06:23:16.424Z,5.40
2019-02-11T06:25:56.507Z,5.40
2019-02-11T06:28:40.530Z,5.40
2019-02-11T06:31:24.384Z,5.40
2019-02-11T06:34:04.887Z,5.30
2019-02-11T06:36:37.038Z,5.30
2019-02-11T06:39:11.304Z,5.30
2019-02-11T06:41:45.556Z,5.30
2019-02-11T06:44:17.500Z,5.30
2019-02-11T06:46:49.919Z,5.30
2019-02-11T06:49:34.952Z,5.30
2019-02-11T06:52:06.054Z,5.30
2019-02-11T06:54:40.820Z,5.20
2019-02-11T06:57:13.163Z,5.30
2019-02-11T06:59:49.937Z,5.30
2019-02-11T07:02:23.760Z,5.30
2019-02-11T07:04:58.732Z,5.30
2019-02-11T07:07:28.722Z,5.30
2019-02-11T07:10:01.034Z,5.40
2019-02-11T07:12:33.135Z,5.40
2019-02-11T07:15:09.469Z,5.50
2019-02-11T07:17:43.688Z,5.50
2019-02-11T07:20:13.145Z,5.50
2019-02-11T07:22:45.472Z,5.50
2019-02-11T07:25:19.022Z,5.60
2019-02-11T07:33:29.188Z,5.70
2019-02-11T07:36:02.301Z,5.70
2019-02-11T07:38:33.734Z,5.80
2019-02-11T07:44:06.328Z,6.00
2019-02-11T07:49:20.037Z,6.10
2019-02-11T07:51:54.467Z,6.20
2019-02-11T07:54:29.618Z,6.20
2019-02-11T07:57:04.638Z,6.20
2019-02-11T07:59:37.448Z,6.30
2019-02-11T08:05:20.810Z,6.30
2019-02-11T08:07:53.985Z,6.30
2019-02-11T08:10:23.660Z,6.30
2019-02-11T08:12:54.998Z,6.30
2019-02-11T08:15:38.607Z,6.30
2019-02-11T08:18:06.375Z,6.40
2019-02-11T08:20:37.791Z,6.40
2019-02-11T08:23:13.601Z,6.40
2019-02-11T08:25:42.856Z,6.40
2019-02-11T08:28:19.553Z,6.50
2019-02-11T08:30:53.136Z,6.50
2019-02-11T08:33:24.386Z,6.50
2019-02-11T08:35:54.866Z,6.50
2019-02-11T08:38:24.155Z,6.50
2019-02-11T08:40:53.504Z,6.50
2019-02-11T08:43:24.205Z,6.50
2019-02-11T08:45:53.887Z,6.60
2019-02-11T08:48:27.154Z,6.60
2019-02-11T08:51:05.451Z,6.50
2019-02-11T08:53:35.384Z,6.50
2019-02-11T08:56:06.197Z,6.50
2019-02-11T08:58:40.492Z,6.50
2019-02-11T09:01:22.215Z,6.50
2019-02-11T09:04:01.827Z,6.60
2019-02-11T09:06:26.852Z,6.60
2019-02-11T09:08:55.674Z,6.70
2019-02-11T09:11:25.233Z,6.80
2019-02-11T09:13:54.807Z,6.90
2019-02-11T09:16:24.718Z,6.90
2019-02-11T09:18:53.923Z,7.00
2019-02-11T09:21:24.218Z,7.00
2019-02-11T09:23:56.797Z,7.00
2019-02-11T09:26:28.497Z,7.00
2019-02-11T09:29:01.098Z,7.00
2019-02-11T09:31:33.795Z,6.90
2019-02-11T09:34:02.989Z,6.90
2019-02-11T09:36:38.029Z,6.90
2019-02-11T09:39:10.465Z,7.10
2019-02-11T09:41:44.135Z,7.20
2019-02-11T09:44:29.465Z,7.30
2019-02-11T09:46:56.909Z,7.30
2019-02-11T09:49:29.987Z,7.40
2019-02-11T09:52:00.290Z,7.50
2019-02-11T09:54:32.420Z,7.50
2019-02-11T09:57:06.312Z,7.50
2019-02-11T09:59:36.572Z,7.40
2019-02-11T10:02:07.237Z,7.40
2019-02-11T10:07:28.793Z,7.50
2019-02-11T10:10:14.765Z,7.60
2019-02-11T10:12:45.341Z,7.70
2019-02-11T10:15:16.799Z,7.70
2019-02-11T10:17:47.742Z,7.70
2019-02-11T10:20:19.024Z,7.80
2019-02-11T10:22:53.568Z,7.80
2019-02-11T10:25:44.709Z,7.80
2019-02-11T10:28:16.400Z,7.80
2019-02-11T10:30:53.135Z,7.80
2019-02-11T10:33:26.378Z,7.90
2019-02-11T10:35:57.746Z,8.10
2019-02-11T10:38:56.666Z,8.20
2019-02-11T10:41:27.521Z,8.70
2019-02-11T10:43:59.440Z,9.70
2019-02-11T10:46:32.392Z,10.20
2019-02-11T10:49:49.049Z,10.50
2019-02-11T10:52:21.494Z,10.50
2019-02-11T10:54:53.853Z,9.90
2019-02-11T10:57:31.296Z,9.50
2019-02-11T11:00:07.628Z,9.40
2019-02-11T11:02:49.094Z,9.20
2019-02-11T11:05:24.171Z,9.20
2019-02-11T11:08:02.461Z,9.30
2019-02-11T11:10:38.576Z,9.30
2019-02-11T11:13:11.632Z,9.10
2019-02-11T11:15:50.442Z,9.00
2019-02-11T11:18:33.293Z,9.00
2019-02-11T11:21:07.105Z,9.00
2019-02-11T11:24:40.072Z,9.00
2019-02-11T11:26:39.886Z,9.20
2019-02-11T11:29:14.090Z,9.10
2019-02-11T11:34:46.124Z,8.80
2019-02-11T11:37:20.636Z,8.90
2019-02-11T11:39:55.978Z,9.00
2019-02-11T11:42:42.064Z,8.90
2019-02-11T11:45:22.837Z,8.90
2019-02-11T11:47:59.751Z,8.80
2019-02-11T11:50:31.707Z,8.70
2019-02-11T11:53:07.665Z,8.70
2019-02-11T11:55:49.399Z,8.70
2019-02-11T11:58:28.351Z,8.80
2019-02-11T12:01:00.894Z,8.80
2019-02-11T12:03:33.800Z,8.70
2019-02-11T12:06:13.042Z,8.70
2019-02-11T12:08:53.491Z,8.60
2019-02-11T12:14:17.381Z,8.20
2019-02-11T12:16:56.976Z,8.00
2019-02-11T12:19:24.820Z,7.90
2019-02-11T12:22:01.110Z,7.80
2019-02-11T12:24:40.673Z,7.70
2019-02-11T12:27:29.111Z,7.70
2019-02-11T12:33:12.325Z,7.60
2019-02-11T12:35:48.721Z,7.30
2019-02-11T12:38:35.532Z,7.00
2019-02-11T12:41:08.858Z,6.40
2019-02-11T12:43:42.631Z,6.10
2019-02-11T12:46:39.192Z,5.80
2019-02-11T12:49:14.067Z,5.50
2019-02-11T12:51:47.949Z,5.40
2019-02-11T12:55:08.707Z,5.50
2019-02-11T12:57:40.880Z,5.50
2019-02-11T13:00:37.110Z,5.60
2019-02-11T13:03:14.014Z,5.50
2019-02-11T13:09:53.505Z,5.60
2019-02-11T13:12:08.100Z,5.60
2019-02-11T13:15:09.571Z,5.50
2019-02-11T13:17:54.550Z,5.50
2019-02-11T13:20:31.021Z,5.40
2019-02-11T13:23:08.173Z,5.40
2019-02-11T13:28:37.727Z,5.20
2019-02-11T13:34:10.694Z,5.20
2019-02-11T13:36:54.514Z,5.10
2019-02-11T13:39:43.954Z,5.00
2019-02-11T13:42:17.379Z,4.90
2019-02-11T13:45:16.424Z,4.80
2019-02-11T13:48:00.363Z,4.80
2019-02-11T14:09:17.114Z,4.60
2019-02-11T14:36:42.995Z,4.60
2019-02-11T14:39:14.376Z,4.50
2019-02-11T14:41:48.517Z,4.50
2019-02-11T14:44:19.110Z,4.50
2019-02-11T14:46:50.029Z,4.50
2019-02-11T14:49:25.242Z,4.40
2019-02-11T14:51:59.199Z,4.40
2019-02-11T14:54:34.835Z,4.40
2019-02-11T14:57:05.077Z,4.40
2019-02-11T14:59:38.767Z,4.30
2019-02-11T15:02:12.168Z,4.30
2019-02-11T15:04:44.961Z,4.30
2019-02-11T15:07:25.307Z,4.30
2019-02-11T15:10:01.419Z,4.30
2019-02-11T15:12:30.479Z,4.40
2019-02-11T15:15:07.692Z,4.30
2019-02-11T15:17:42.960Z,4.40
2019-02-11T15:20:28.948Z,4.40
2019-02-11T15:23:02.760Z,4.40
2019-02-11T15:25:35.751Z,4.40
2019-02-11T15:28:06.844Z,4.40
2019-02-11T15:30:37.664Z,4.40
2019-02-11T15:33:09.607Z,4.40
2019-02-11T15:35:39.702Z,4.30
2019-02-11T15:38:12.248Z,4.30
2019-02-11T15:40:42.996Z,4.30
2019-02-11T15:43:12.371Z,4.30
2019-02-11T15:45:45.656Z,4.30
2019-02-11T15:48:20.245Z,4.30
2019-02-11T15:50:53.235Z,4.30
2019-02-11T15:53:28.241Z,4.30
2019-02-11T15:56:06.552Z,4.30
2019-02-11T15:58:33.610Z,4.30
2019-02-11T16:01:22.808Z,4.30
2019-02-11T16:03:57.445Z,4.30
2019-02-11T16:06:38.111Z,4.30
2019-02-11T16:09:10.574Z,4.30
2019-02-11T16:11:45.523Z,4.30
2019-02-11T16:14:20.195Z,4.30
2019-02-11T16:16:57.890Z,4.30
2019-02-11T16:19:31.673Z,4.20
2019-02-11T16:22:04.151Z,4.20
2019-02-11T16:24:33.743Z,4.20
2019-02-11T16:27:04.680Z,4.20
2019-02-11T16:29:37.626Z,4.20
2019-02-11T16:32:10.934Z,4.20
2019-02-11T16:37:36.060Z,4.30
2019-02-11T16:40:08.416Z,4.30
2019-02-11T16:42:47.669Z,4.40
2019-02-11T16:45:19.918Z,4.30
2019-02-11T16:47:51.708Z,4.40
2019-02-11T16:50:27.191Z,4.40
2019-02-11T16:52:59.885Z,4.40
2019-02-11T16:55:34.934Z,4.40
2019-02-11T16:58:06.708Z,4.50
2019-02-11T17:00:38.575Z,4.50
2019-02-11T17:03:11.837Z,4.60
2019-02-11T17:05:42.990Z,4.60
2019-02-11T17:08:51.849Z,4.60
2019-02-11T17:11:28.738Z,4.50
2019-02-11T17:14:01.555Z,4.60
2019-02-11T17:16:42.196Z,4.60
2019-02-11T17:19:17.074Z,4.60
2019-02-11T17:21:54.547Z,4.70
2019-02-11T18:43:31.546Z,4.40
2019-02-11T18:46:02.025Z,4.40
2019-02-11T18:51:37.854Z,4.30
2019-02-11T18:57:20.309Z,4.40
2019-02-11T19:03:10.518Z,4.40
2019-02-11T19:05:46.165Z,4.50
2019-02-11T19:08:29.596Z,4.50
2019-02-11T19:11:03.187Z,4.50
2019-02-11T19:13:36.830Z,4.50
2019-02-11T19:16:07.725Z,4.40
2019-02-11T19:18:36.594Z,4.40
2019-02-11T19:21:07.140Z,4.40
2019-02-11T19:23:45.777Z,4.40
2019-02-11T19:26:21.120Z,4.40
2019-02-11T19:28:56.112Z,4.40
2019-02-11T19:34:22.460Z,4.30
2019-02-11T19:37:04.971Z,4.20
2019-02-11T19:39:38.164Z,4.10
2019-02-11T19:42:53.106Z,4.10
2019-02-11T19:45:25.051Z,4.10
2019-02-11T19:47:57.094Z,4.10
2019-02-11T19:50:33.772Z,4.10
2019-02-11T19:54:03.495Z,4.00
2019-02-11T19:56:34.234Z,4.00
2019-02-11T20:02:01.245Z,4.00
2019-02-11T20:04:32.328Z,4.00
2019-02-11T20:07:10.817Z,3.90
2019-02-11T20:09:59.938Z,3.90
2019-02-11T20:12:32.814Z,3.90
2019-02-11T20:18:19.185Z,3.80
2019-02-11T20:21:09.220Z,3.70
2019-02-11T20:23:48.286Z,3.70
2019-02-11T23:46:40.981Z,2.70
2019-02-11T23:52:08.212Z,2.80
2019-02-11T23:54:40.573Z,2.80
2019-02-11T23:57:21.048Z,2.70
2019-02-11T23:59:50.411Z,2.80
